Time;durP1;ratioP1;P1;durP2;ratioP2;P2;SDS_P1;SDS_P2;PMS_P1;PMS_P2;Temp;Humidity;BMP_temperature;BMP_pressure;BME280_temperature;BME280_humidity;BME280_pressure;Samples;Min_cycle;Max_cycle;Signal;HPM_P1;HPM_P2
2022/07/25 00:00:13;;;;;;;2.85;1.40;;;21.20;77.50;;;;;;5053451;28;20043;-77
2022/07/25 00:02:38;;;;;;;2.70;1.70;;;21.20;77.80;;;;;;5070648;28;20460;-77
2022/07/25 00:05:04;;;;;;;6.65;1.73;;;21.20;77.90;;;;;;5053101;28;20085;-78
2022/07/25 00:07:30;;;;;;;4.43;2.45;;;21.20;78.20;;;;;;5052290;28;20024;-82
2022/07/25 00:09:56;;;;;;;2.67;1.50;;;21.20;78.00;;;;;;5052795;28;20169;-79
2022/07/25 00:12:21;;;;;;;2.63;1.55;;;21.10;78.20;;;;;;5053016;28;20127;-77
2022/07/25 00:14:47;;;;;;;2.65;1.42;;;21.10;78.50;;;;;;5052924;28;20056;-77
2022/07/25 00:17:13;;;;;;;7.60;1.60;;;21.10;78.50;;;;;;5070338;28;20032;-79
2022/07/25 00:19:39;;;;;;;2.03;1.40;;;21.10;78.60;;;;;;5052919;28;20499;-77
2022/07/25 00:22:04;;;;;;;4.65;1.40;;;21.00;78.80;;;;;;5070398;28;20490;-78
2022/07/25 00:24:30;;;;;;;2.22;1.52;;;21.00;78.80;;;;;;5052500;28;20028;-78
2022/07/25 00:26:55;;;;;;;2.72;1.52;;;21.00;78.90;;;;;;5069932;28;20032;-81
2022/07/25 00:29:20;;;;;;;2.88;1.65;;;21.00;78.60;;;;;;5070722;28;20033;-78
2022/07/25 00:31:46;;;;;;;2.10;1.50;;;21.00;78.80;;;;;;5052176;28;20178;-82
2022/07/25 00:34:11;;;;;;;2.33;1.30;;;20.90;78.70;;;;;;5052660;28;20027;-80
2022/07/25 00:36:37;;;;;;;2.95;1.60;;;20.90;79.30;;;;;;5069788;28;20806;-78
2022/07/25 00:39:03;;;;;;;2.00;1.23;;;20.90;78.80;;;;;;5070330;28;20042;-78
2022/07/25 00:41:29;;;;;;;2.38;1.27;;;20.80;79.00;;;;;;5070514;28;20364;-78
2022/07/25 00:43:55;;;;;;;2.97;1.25;;;20.80;79.70;;;;;;5070253;28;20044;-79
2022/07/25 00:46:21;;;;;;;8.18;2.20;;;20.80;79.80;;;;;;5051815;28;20467;-80
2022/07/25 00:48:46;;;;;;;2.33;1.25;;;20.80;80.30;;;;;;5052627;28;20045;-80
2022/07/25 00:51:12;;;;;;;3.15;1.92;;;20.80;80.30;;;;;;5052430;28;20027;-79
2022/07/25 00:53:38;;;;;;;1.75;1.27;;;20.70;80.50;;;;;;5070450;28;20059;-79
2022/07/25 00:56:05;;;;;;;2.75;1.80;;;20.70;80.10;;;;;;5069488;28;20112;-79
2022/07/25 00:58:31;;;;;;;1.90;1.40;;;20.70;80.10;;;;;;5070207;28;20438;-80
2022/07/25 01:00:57;;;;;;;3.40;1.73;;;20.70;79.60;;;;;;5069727;28;20071;-78
2022/07/25 01:03:23;;;;;;;4.78;2.03;;;20.70;79.70;;;;;;5052310;28;20037;-82
2022/07/25 01:05:49;;;;;;;4.20;2.25;;;20.80;79.20;;;;;;5051394;28;20459;-82
2022/07/25 01:08:17;;;;;;;3.28;2.05;;;20.70;78.60;;;;;;5051988;28;20039;-78
2022/07/25 01:10:44;;;;;;;3.50;2.33;;;20.80;78.10;;;;;;5051769;28;20028;-78
2022/07/25 01:13:09;;;;;;;6.72;2.50;;;20.90;78.30;;;;;;5070267;28;20107;-78
2022/07/25 01:15:35;;;;;;;2.45;1.63;;;20.90;77.70;;;;;;5069644;28;20108;-79
2022/07/25 01:18:00;;;;;;;3.33;1.90;;;21.00;77.60;;;;;;5051819;28;20063;-79
2022/07/25 01:20:28;;;;;;;2.30;1.60;;;21.00;77.40;;;;;;5070825;28;20470;-78
2022/07/25 01:22:54;;;;;;;4.63;2.22;;;21.10;77.10;;;;;;5051950;28;20063;-77
2022/07/25 01:25:21;;;;;;;2.67;1.75;;;21.10;77.10;;;;;;5053973;28;20025;-80
2022/07/25 01:27:47;;;;;;;5.68;1.38;;;21.20;77.00;;;;;;5053623;28;20028;-78
2022/07/25 01:30:14;;;;;;;2.47;1.63;;;21.20;76.60;;;;;;5052622;28;20029;-78
2022/07/25 01:32:41;;;;;;;1.50;1.40;;;21.20;77.10;;;;;;5070086;28;20025;-77
2022/07/25 01:35:08;;;;;;;1.90;1.52;;;21.20;76.10;;;;;;5051434;28;20032;-80
2022/07/25 01:37:33;;;;;;;5.20;1.45;;;21.20;76.40;;;;;;5069431;28;20032;-79
2022/07/25 01:40:00;;;;;;;2.67;1.45;;;21.20;76.30;;;;;;5051519;28;20043;-78
2022/07/25 01:42:26;;;;;;;3.03;1.80;;;21.20;76.40;;;;;;5051654;28;20481;-78
2022/07/25 01:44:52;;;;;;;2.35;1.70;;;21.20;76.20;;;;;;5051825;28;20040;-78
2022/07/25 01:47:18;;;;;;;4.00;1.60;;;21.30;76.10;;;;;;5068913;28;20040;-83
2022/07/25 01:49:43;;;;;;;1.80;1.40;;;21.30;76.80;;;;;;5051609;28;20021;-79
2022/07/25 01:52:11;;;;;;;2.83;2.20;;;21.30;76.30;;;;;;5069662;28;20057;-78
2022/07/25 01:54:36;;;;;;;4.30;1.98;;;21.20;76.30;;;;;;5051505;28;20379;-79
2022/07/25 01:57:03;;;;;;;3.15;1.67;;;21.20;76.40;;;;;;5068926;28;20043;-80
2022/07/25 01:59:28;;;;;;;1.92;1.50;;;21.20;77.40;;;;;;5069682;28;20095;-79
2022/07/25 02:01:54;;;;;;;3.35;1.95;;;21.20;76.80;;;;;;5050937;28;20133;-78
2022/07/25 02:04:19;;;;;;;2.20;1.80;;;21.20;77.10;;;;;;5051502;28;20025;-79
2022/07/25 02:06:45;;;;;;;1.67;1.58;;;21.10;77.00;;;;;;5069265;28;20040;-80
2022/07/25 02:09:10;;;;;;;4.85;1.80;;;21.20;76.90;;;;;;5069265;28;20480;-81
2022/07/25 02:11:36;;;;;;;3.55;1.65;;;21.20;77.40;;;;;;5069264;28;20067;-79
2022/07/25 02:14:02;;;;;;;4.25;1.83;;;21.20;77.40;;;;;;5051259;28;20111;-80
2022/07/25 02:16:27;;;;;;;2.70;1.85;;;21.20;77.00;;;;;;5050800;28;20032;-78
2022/07/25 02:18:53;;;;;;;3.65;2.25;;;21.20;77.00;;;;;;5052532;28;20037;-78
2022/07/25 02:21:20;;;;;;;2.85;2.15;;;21.20;77.10;;;;;;5073169;28;20495;-80
2022/07/25 02:23:45;;;;;;;2.78;1.98;;;21.20;77.30;;;;;;5072478;28;20036;-80
2022/07/25 02:26:12;;;;;;;3.20;2.05;;;21.20;77.40;;;;;;5072484;28;20089;-78
2022/07/25 02:28:37;;;;;;;2.60;2.10;;;21.20;77.80;;;;;;5055048;28;20062;-79
2022/07/25 02:31:03;;;;;;;2.85;2.17;;;21.20;77.90;;;;;;5054430;28;20083;-77
2022/07/25 02:33:28;;;;;;;3.13;2.65;;;21.20;77.80;;;;;;5055004;28;20657;-83
2022/07/25 02:35:54;;;;;;;4.18;2.20;;;21.20;77.90;;;;;;5053903;28;20020;-81
2022/07/25 02:38:20;;;;;;;4.50;2.33;;;21.20;78.20;;;;;;5054777;28;20036;-78
2022/07/25 02:40:50;;;;;;;3.65;2.40;;;21.20;78.10;;;;;;5072301;28;20368;-79
2022/07/25 02:43:15;;;;;;;5.68;2.50;;;21.20;78.40;;;;;;5073257;28;20115;-80
2022/07/25 02:45:41;;;;;;;2.40;2.20;;;21.20;79.50;;;;;;5072108;28;20135;-78
2022/07/25 02:48:07;;;;;;;3.30;2.40;;;21.20;79.10;;;;;;5054513;28;20044;-79
2022/07/25 02:50:32;;;;;;;3.17;2.17;;;21.10;79.10;;;;;;5054702;28;20028;-78
2022/07/25 02:52:58;;;;;;;5.63;2.30;;;21.10;79.20;;;;;;5071887;28;20040;-78
2022/07/25 02:55:23;;;;;;;3.25;2.40;;;21.10;79.80;;;;;;5072537;28;20102;-78
2022/07/25 02:57:49;;;;;;;4.93;2.13;;;21.10;79.80;;;;;;5072392;28;20636;-78
2022/07/25 03:00:15;;;;;;;3.05;2.38;;;21.10;80.00;;;;;;5073097;28;20046;-78
2022/07/25 03:02:41;;;;;;;2.78;2.10;;;21.10;79.90;;;;;;5071514;28;20031;-82
2022/07/25 03:05:13;;;;;;;2.90;2.40;;;21.00;79.60;;;;;;5054073;28;20032;-81
2022/07/25 03:07:38;;;;;;;5.10;2.92;;;21.10;79.80;;;;;;5071532;28;20060;-78
2022/07/25 03:10:06;;;;;;;4.00;2.15;;;21.10;80.00;;;;;;5053795;28;20064;-78
2022/07/25 03:12:32;;;;;;;4.43;2.40;;;21.00;80.00;;;;;;5053833;28;20108;-78
2022/07/25 03:14:58;;;;;;;3.50;2.58;;;21.00;80.70;;;;;;5071772;28;20079;-79
2022/07/25 03:17:24;;;;;;;5.63;2.20;;;21.00;81.10;;;;;;5053312;28;20032;-83
2022/07/25 03:19:49;;;;;;;3.58;3.00;;;21.00;81.10;;;;;;5071779;28;20086;-78
2022/07/25 03:22:15;;;;;;;3.50;2.65;;;21.00;81.10;;;;;;5071773;28;20556;-79
2022/07/25 03:24:40;;;;;;;3.25;2.17;;;21.00;81.60;;;;;;5071620;28;20062;-79
2022/07/25 03:27:06;;;;;;;3.58;2.50;;;21.00;81.70;;;;;;5053156;28;20032;-78
2022/07/25 03:29:32;;;;;;;3.63;2.58;;;20.90;82.00;;;;;;5071924;28;20036;-81
2022/07/25 03:31:58;;;;;;;4.60;2.67;;;20.80;82.00;;;;;;5071344;28;20762;-78
2022/07/25 03:34:23;;;;;;;10.98;2.97;;;20.80;82.50;;;;;;5072094;28;20493;-77
2022/07/25 03:36:49;;;;;;;5.35;3.03;;;20.80;83.40;;;;;;5071019;28;20071;-77
2022/07/25 03:39:15;;;;;;;3.67;2.58;;;20.80;83.00;;;;;;5053622;28;20046;-78
2022/07/25 03:41:40;;;;;;;4.57;2.63;;;20.80;83.00;;;;;;5052954;28;20032;-79
2022/07/25 03:44:06;;;;;;;3.35;2.50;;;20.70;83.50;;;;;;5053501;28;20101;-78
2022/07/25 03:46:31;;;;;;;3.65;2.65;;;20.80;83.30;;;;;;5052851;28;20035;-81
2022/07/25 03:48:57;;;;;;;2.67;2.13;;;20.80;83.50;;;;;;5053239;28;20618;-78
2022/07/25 03:51:23;;;;;;;3.75;2.88;;;20.70;83.60;;;;;;5053137;28;20467;-79
2022/07/25 03:54:07;;;;;;;3.65;2.88;;;20.70;83.70;;;;;;5070689;28;20098;-81
2022/07/25 03:56:43;;;;;;;3.13;2.65;;;20.70;84.30;;;;;;5052466;28;20025;-79
2022/07/25 03:59:10;;;;;;;3.10;2.28;;;20.70;84.40;;;;;;5071135;28;20035;-78
2022/07/25 04:01:35;;;;;;;4.82;3.05;;;20.70;84.30;;;;;;5070503;28;20457;-82
2022/07/25 04:04:01;;;;;;;2.75;2.47;;;20.70;84.60;;;;;;5053056;28;20120;-78
2022/07/25 04:06:27;;;;;;;4.30;2.70;;;20.70;84.80;;;;;;5070332;28;20028;-79
2022/07/25 04:08:53;;;;;;;4.25;2.67;;;20.70;85.00;;;;;;5070708;28;20063;-80
2022/07/25 04:11:19;;;;;;;4.03;2.70;;;20.70;85.20;;;;;;5070999;28;20063;-78
2022/07/25 04:13:45;;;;;;;5.60;2.70;;;20.70;85.40;;;;;;5071114;28;20498;-78
2022/07/25 04:16:11;;;;;;;6.10;3.35;;;20.70;86.40;;;;;;5052408;28;20111;-78
2022/07/25 04:18:37;;;;;;;4.35;3.03;;;20.70;86.30;;;;;;5070908;28;20086;-78
2022/07/25 04:21:03;;;;;;;3.75;3.17;;;20.70;86.20;;;;;;5070389;28;20529;-77
2022/07/25 04:23:30;;;;;;;5.88;3.75;;;20.70;86.90;;;;;;5070469;28;20040;-79
2022/07/25 04:25:56;;;;;;;3.40;3.03;;;20.70;87.00;;;;;;5069816;28;20032;-81
2022/07/25 04:28:22;;;;;;;4.60;3.22;;;20.60;87.20;;;;;;5052698;28;20097;-77
2022/07/25 04:30:48;;;;;;;5.00;3.58;;;20.60;87.60;;;;;;5052103;28;20029;-80
2022/07/25 04:33:14;;;;;;;4.53;3.35;;;20.70;87.70;;;;;;5052982;28;20031;-78
2022/07/25 04:35:39;;;;;;;4.57;3.20;;;20.60;87.50;;;;;;5070244;28;20100;-78
2022/07/25 04:38:05;;;;;;;5.50;3.10;;;20.60;87.80;;;;;;5071159;28;20177;-79
2022/07/25 04:40:31;;;;;;;4.25;3.17;;;20.70;88.40;;;;;;5052907;28;20020;-82
2022/07/25 04:42:56;;;;;;;4.35;3.08;;;20.60;87.80;;;;;;5052013;28;20044;-77
2022/07/25 04:45:22;;;;;;;4.03;2.67;;;20.70;87.80;;;;;;5070259;28;20532;-79
2022/07/25 04:47:48;;;;;;;4.45;3.03;;;20.70;87.90;;;;;;5070072;28;20029;-77
2022/07/25 04:50:14;;;;;;;4.32;3.28;;;20.80;88.00;;;;;;5052693;28;20025;-78
2022/07/25 04:52:39;;;;;;;4.60;3.10;;;20.80;88.10;;;;;;5051659;28;20033;-78
2022/07/25 04:55:06;;;;;;;5.72;3.58;;;20.80;88.10;;;;;;5070172;28;20039;-82
2022/07/25 04:57:31;;;;;;;4.20;3.53;;;20.80;88.80;;;;;;5051681;28;20050;-81
2022/07/25 04:59:57;;;;;;;4.05;2.88;;;20.90;88.80;;;;;;5051985;28;20016;-77
2022/07/25 05:02:23;;;;;;;4.68;3.10;;;20.90;88.50;;;;;;5051808;28;20067;-78
2022/07/25 05:04:49;;;;;;;3.95;3.30;;;20.90;89.40;;;;;;5052133;28;20036;-81
2022/07/25 05:07:14;;;;;;;5.38;3.45;;;21.00;89.30;;;;;;5051357;28;20030;-80
2022/07/25 05:09:40;;;;;;;3.72;3.28;;;21.00;89.40;;;;;;5051990;28;20122;-78
2022/07/25 05:12:06;;;;;;;4.97;3.45;;;21.10;89.60;;;;;;5069614;28;20032;-79
2022/07/25 05:14:31;;;;;;;5.18;2.80;;;21.10;89.60;;;;;;5052017;28;20544;-81
2022/07/25 05:16:57;;;;;;;4.00;3.45;;;21.10;89.50;;;;;;5069456;28;20082;-78
2022/07/25 05:19:22;;;;;;;4.90;3.65;;;21.20;89.70;;;;;;5052021;28;20776;-83
2022/07/25 05:21:47;;;;;;;5.70;3.25;;;21.20;89.40;;;;;;5051579;28;20506;-78
2022/07/25 05:24:13;;;;;;;5.85;3.53;;;21.30;89.60;;;;;;5051873;28;20028;-77
2022/07/25 05:26:38;;;;;;;4.00;3.60;;;21.30;90.00;;;;;;5069296;28;20024;-82
2022/07/25 05:29:04;;;;;;;3.60;3.22;;;21.40;90.20;;;;;;5051802;28;20020;-78
2022/07/25 05:31:29;;;;;;;4.40;3.90;;;21.50;90.10;;;;;;5051553;28;20110;-77
2022/07/25 05:33:55;;;;;;;6.05;4.20;;;21.50;90.00;;;;;;5051665;28;20041;-78
2022/07/25 05:36:20;;;;;;;5.80;4.15;;;21.60;90.00;;;;;;5051456;28;20025;-77
2022/07/25 05:38:46;;;;;;;6.45;3.85;;;21.70;90.00;;;;;;5069618;28;20576;-78
2022/07/25 05:41:12;;;;;;;6.43;4.00;;;21.80;90.10;;;;;;5051398;28;20076;-79
2022/07/25 05:43:37;;;;;;;4.32;3.92;;;21.90;90.00;;;;;;5069849;28;20025;-82
2022/07/25 05:46:04;;;;;;;4.30;3.45;;;22.00;90.00;;;;;;5068774;28;20035;-78
2022/07/25 05:48:30;;;;;;;6.20;4.13;;;22.10;90.00;;;;;;5051796;28;20029;-80
2022/07/25 05:50:57;;;;;;;6.03;3.28;;;22.20;89.90;;;;;;5051121;28;20032;-78
2022/07/25 05:53:23;;;;;;;4.38;3.50;;;22.40;89.70;;;;;;5069974;28;20050;-78
2022/07/25 05:55:49;;;;;;;4.85;4.35;;;22.50;89.20;;;;;;5072716;28;20028;-78
2022/07/25 05:58:14;;;;;;;6.45;4.10;;;22.60;88.60;;;;;;5073668;28;20037;-81
2022/07/25 06:00:40;;;;;;;7.30;4.18;;;22.80;89.20;;;;;;5055447;28;20033;-79
2022/07/25 06:03:05;;;;;;;4.90;4.20;;;22.90;88.70;;;;;;5054967;28;20025;-81
2022/07/25 06:05:31;;;;;;;7.13;4.47;;;23.10;88.40;;;;;;5072855;28;20167;-83
2022/07/25 06:07:56;;;;;;;5.10;4.03;;;23.20;87.30;;;;;;5054857;28;20085;-77
2022/07/25 06:10:22;;;;;;;5.10;4.57;;;23.30;86.80;;;;;;5073276;28;20315;-79
2022/07/25 06:12:47;;;;;;;5.82;4.10;;;23.50;86.80;;;;;;5054859;28;20028;-79
2022/07/25 06:15:13;;;;;;;4.47;3.92;;;23.60;85.70;;;;;;5055515;28;20036;-82
2022/07/25 06:17:38;;;;;;;6.75;4.28;;;23.70;85.60;;;;;;5054489;28;20038;-79
2022/07/25 06:20:04;;;;;;;6.35;3.50;;;23.90;84.80;;;;;;5055836;28;20052;-82
2022/07/25 06:22:30;;;;;;;5.45;3.97;;;24.00;84.90;;;;;;5054665;28;20478;-80
2022/07/25 06:24:56;;;;;;;4.75;4.10;;;24.20;84.60;;;;;;5072948;28;20094;-78
2022/07/25 06:27:21;;;;;;;14.88;3.85;;;24.30;83.90;;;;;;5072420;28;20782;-79
2022/07/25 06:29:47;;;;;;;4.65;3.88;;;24.40;83.50;;;;;;5055037;28;20029;-80
2022/07/25 06:32:12;;;;;;;5.35;4.80;;;24.50;83.40;;;;;;5054725;28;20033;-78
2022/07/25 06:34:38;;;;;;;5.60;4.35;;;24.60;82.60;;;;;;5073261;28;20367;-78
2022/07/25 06:37:03;;;;;;;5.22;4.30;;;24.80;81.70;;;;;;5071618;28;20068;-78
2022/07/25 06:39:29;;;;;;;7.97;4.60;;;24.90;81.30;;;;;;5054880;28;20025;-79
2022/07/25 06:41:54;;;;;;;4.90;3.80;;;25.00;81.70;;;;;;5054089;28;20051;-80
2022/07/25 06:44:20;;;;;;;5.55;4.60;;;25.10;81.00;;;;;;5072908;28;20028;-78
2022/07/25 06:46:46;;;;;;;5.50;4.55;;;25.20;81.60;;;;;;5071746;28;20032;-82
2022/07/25 06:49:11;;;;;;;7.63;4.45;;;25.30;80.90;;;;;;5054955;28;20035;-78
2022/07/25 06:51:37;;;;;;;5.13;4.38;;;25.40;80.00;;;;;;5054113;28;20490;-78
2022/07/25 06:54:02;;;;;;;5.60;4.57;;;25.50;79.90;;;;;;5072547;28;20107;-82
2022/07/25 06:56:30;;;;;;;6.50;4.47;;;25.60;79.90;;;;;;5072056;28;20444;-83
2022/07/25 06:58:56;;;;;;;4.93;4.05;;;25.80;79.10;;;;;;5072102;28;20040;-78
2022/07/25 07:01:22;;;;;;;10.43;4.50;;;25.90;79.30;;;;;;5054293;28;20135;-79
2022/07/25 07:03:47;;;;;;;10.65;4.40;;;26.00;79.20;;;;;;5054110;28;20111;-78
2022/07/25 07:06:13;;;;;;;6.00;4.35;;;26.10;78.30;;;;;;5071244;28;20024;-80
2022/07/25 07:08:38;;;;;;;6.32;4.07;;;26.20;78.20;;;;;;5072276;28;20032;-81
2022/07/25 07:11:05;;;;;;;4.68;4.07;;;26.30;77.90;;;;;;5071879;28;20082;-79
2022/07/25 07:13:31;;;;;;;7.15;4.50;;;26.50;78.20;;;;;;5072250;28;20029;-79
2022/07/25 07:15:56;;;;;;;4.90;3.65;;;26.70;76.70;;;;;;5069368;28;20035;-80
2022/07/25 07:18:22;;;;;;;6.18;3.97;;;26.70;76.50;;;;;;5072251;28;20036;-82
2022/07/25 07:20:48;;;;;;;6.57;4.32;;;26.90;76.30;;;;;;5059663;28;20029;-77
2022/07/25 07:23:13;;;;;;;6.28;4.25;;;27.00;76.90;;;;;;5056633;28;20025;-78
2022/07/25 07:25:39;;;;;;;13.95;4.60;;;27.20;75.90;;;;;;5053011;28;20029;-81
2022/07/25 07:28:05;;;;;;;7.05;3.72;;;27.40;75.30;;;;;;5071883;28;20079;-80
2022/07/25 07:30:31;;;;;;;6.20;4.47;;;27.50;74.90;;;;;;5053942;28;20025;-84
2022/07/25 07:32:57;;;;;;;10.15;4.28;;;27.60;75.40;;;;;;5071145;28;20093;-77
2022/07/25 07:35:24;;;;;;;6.38;4.03;;;27.80;74.50;;;;;;5053928;28;20036;-79
2022/07/25 07:37:51;;;;;;;8.80;4.88;;;28.00;73.60;;;;;;5053533;28;20483;-82
2022/07/25 07:40:17;;;;;;;5.85;4.20;;;28.10;74.00;;;;;;5072182;28;20505;-79
2022/07/25 07:42:44;;;;;;;5.38;4.05;;;28.30;73.60;;;;;;5071884;28;20119;-80
2022/07/25 07:45:19;;;;;;;5.63;4.22;;;28.50;72.30;;;;;;5073416;28;20133;-79
2022/07/25 07:47:47;;;;;;;9.15;4.50;;;28.70;71.80;;;;;;5072376;28;20434;-79
2022/07/25 07:50:14;;;;;;;6.78;3.90;;;28.90;71.30;;;;;;5071994;28;20028;-79
2022/07/25 07:52:40;;;;;;;4.63;3.90;;;29.10;71.20;;;;;;5071511;28;20108;-80
2022/07/25 07:57:50;;;;;;;4.93;4.38;;;29.40;71.40;;;;;;5071440;28;20043;-79
2022/07/25 08:00:17;;;;;;;6.78;4.43;;;29.60;69.50;;;;;;5053630;28;20025;-80
2022/07/25 08:02:45;;;;;;;4.28;3.80;;;29.80;69.10;;;;;;5070817;28;20032;-80
2022/07/25 08:05:12;;;;;;;5.22;4.05;;;30.00;69.20;;;;;;5053215;28;20028;-79
2022/07/25 08:07:37;;;;;;;5.22;3.85;;;30.30;68.30;;;;;;5070620;28;20826;-83
2022/07/25 08:10:03;;;;;;;6.43;4.18;;;30.40;67.70;;;;;;5071002;28;20032;-79
2022/07/25 08:12:29;;;;;;;6.82;4.15;;;30.70;67.00;;;;;;5071434;28;20383;-81
2022/07/25 08:14:54;;;;;;;7.00;4.32;;;30.80;66.40;;;;;;5052958;28;20020;-79
2022/07/25 08:17:20;;;;;;;5.57;4.60;;;31.00;65.30;;;;;;5069559;28;20032;-79
2022/07/25 08:19:45;;;;;;;3.97;3.60;;;31.10;65.40;;;;;;5070891;28;20028;-81
2022/07/25 08:22:11;;;;;;;4.18;3.80;;;31.30;64.50;;;;;;5052642;28;20017;-83
2022/07/25 08:24:36;;;;;;;7.13;4.35;;;31.40;64.50;;;;;;5052801;28;20085;-80
2022/07/25 08:27:02;;;;;;;10.55;3.72;;;31.50;63.50;;;;;;5069772;28;20410;-78
2022/07/25 08:29:27;;;;;;;4.20;3.80;;;31.70;62.80;;;;;;5070796;28;20046;-79
2022/07/25 08:31:53;;;;;;;6.45;4.18;;;31.80;64.00;;;;;;5070622;28;20085;-78
2022/07/25 08:34:21;;;;;;;6.55;3.85;;;32.00;63.30;;;;;;5052588;28;20028;-79
2022/07/25 08:36:46;;;;;;;6.13;3.92;;;32.20;64.00;;;;;;5051872;28;20029;-82
2022/07/25 08:39:12;;;;;;;6.05;3.72;;;32.30;61.30;;;;;;5070233;28;20036;-79
2022/07/25 08:41:41;;;;;;;4.97;3.53;;;32.50;60.30;;;;;;5052395;28;20072;-78
2022/07/25 08:44:08;;;;;;;3.80;3.33;;;32.70;60.70;;;;;;5070445;28;20492;-79
2022/07/25 08:46:34;;;;;;;5.45;3.67;;;32.80;60.00;;;;;;5069948;28;20030;-81
2022/07/25 08:49:00;;;;;;;6.82;3.58;;;33.10;59.10;;;;;;5052385;28;20398;-80
2022/07/25 08:51:26;;;;;;;5.85;3.95;;;33.20;58.80;;;;;;5070150;28;20031;-80
2022/07/25 08:53:53;;;;;;;5.75;3.60;;;33.30;57.50;;;;;;5085579;28;20043;-80
2022/07/25 08:56:18;;;;;;;7.65;4.13;;;33.50;59.60;;;;;;5069960;28;20107;-82
2022/07/25 08:58:44;;;;;;;6.57;3.75;;;33.50;56.90;;;;;;5052359;28;20124;-79
2022/07/25 09:01:10;;;;;;;4.65;4.10;;;33.70;56.60;;;;;;5051997;28;20056;-79
2022/07/25 09:03:36;;;;;;;6.40;4.30;;;33.80;57.40;;;;;;5070236;28;20028;-79
2022/07/25 09:06:13;;;;;;;4.47;3.45;;;33.90;56.90;;;;;;5069321;28;20055;-80
2022/07/25 09:08:49;;;;;;;4.57;3.97;;;34.00;55.70;;;;;;5052038;28;20098;-78
2022/07/25 09:11:25;;;;;;;4.72;3.35;;;34.10;55.10;;;;;;5050053;28;20108;-78
2022/07/25 09:14:09;;;;;;;4.70;3.83;;;34.20;57.00;;;;;;5065556;28;20052;-82
2022/07/25 09:16:41;;;;;;;4.45;4.03;;;34.20;55.50;;;;;;5049719;28;20475;-80
2022/07/25 09:19:14;;;;;;;4.07;3.60;;;34.20;54.00;;;;;;5065541;28;20037;-79
2022/07/25 09:21:42;;;;;;;4.28;3.25;;;34.30;55.10;;;;;;5049975;28;20032;-80
2022/07/25 09:24:21;;;;;;;7.93;3.80;;;34.30;53.00;;;;;;5040425;28;20031;-82
2022/07/25 09:26:51;;;;;;;3.55;3.25;;;34.30;53.00;;;;;;5069574;28;20021;-81
2022/07/25 09:29:23;;;;;;;3.97;3.58;;;34.30;52.90;;;;;;5052532;28;20029;-84
2022/07/25 09:31:50;;;;;;;5.55;4.05;;;34.30;53.00;;;;;;5069442;28;20020;-83
2022/07/25 09:34:32;;;;;;;4.97;3.78;;;34.40;54.90;;;;;;5070285;28;20078;-82
2022/07/25 09:37:03;;;;;;;3.67;3.20;;;34.50;53.20;;;;;;5051258;28;20105;-80
2022/07/25 09:39:32;;;;;;;4.20;3.80;;;34.60;53.40;;;;;;5069746;28;20085;-82
2022/07/25 09:41:58;;;;;;;5.18;4.50;;;34.60;51.60;;;;;;5069726;28;20088;-81
2022/07/25 09:44:29;;;;;;;5.88;3.63;;;34.70;51.90;;;;;;5069921;28;20108;-82
2022/07/25 09:46:55;;;;;;;6.20;3.90;;;34.80;52.50;;;;;;5069026;28;20024;-80
2022/07/25 09:49:21;;;;;;;6.38;3.65;;;34.80;51.50;;;;;;5052052;28;20428;-82
2022/07/25 09:51:46;;;;;;;3.88;3.38;;;34.90;51.70;;;;;;5069540;28;20028;-81
2022/07/25 09:54:13;;;;;;;6.55;3.88;;;35.00;50.80;;;;;;5069721;28;20631;-81
2022/07/25 09:56:38;;;;;;;4.18;3.78;;;35.00;51.00;;;;;;5051193;28;20037;-82
2022/07/25 09:59:05;;;;;;;4.35;3.58;;;35.10;50.60;;;;;;5051546;28;20043;-82
2022/07/25 10:01:36;;;;;;;4.15;3.22;;;35.20;52.30;;;;;;5069477;28;20044;-85
2022/07/25 10:04:19;;;;;;;5.50;3.65;;;35.30;49.70;;;;;;5069495;28;20029;-82
2022/07/25 10:06:51;;;;;;;5.30;3.35;;;35.40;51.20;;;;;;5069095;28;20039;-83
2022/07/25 10:09:16;;;;;;;;;;;35.60;50.50;;;;;;5069795;28;20792;-84
2022/07/25 10:12:05;;;;;;;5.03;4.07;;;35.60;49.30;;;;;;5051149;28;19916;-84
2022/07/25 10:14:32;;;;;;;4.38;3.33;;;35.60;50.00;;;;;;5069577;28;20024;-84
2022/07/25 10:16:58;;;;;;;4.18;3.60;;;35.70;49.60;;;;;;5068578;28;20054;-82
2022/07/25 10:19:46;;;;;;;4.65;3.38;;;35.70;50.30;;;;;;5069589;28;20470;-82
2022/07/25 10:22:15;;;;;;;3.60;3.22;;;35.80;49.00;;;;;;5051046;28;20028;-81
2022/07/25 10:24:45;;;;;;;6.07;3.33;;;35.90;51.10;;;;;;5069354;28;20031;-81
2022/07/25 10:27:13;;;;;;;4.00;3.20;;;35.90;51.50;;;;;;5068743;28;20027;-80
2022/07/25 10:29:40;;;;;;;4.18;3.72;;;36.00;48.30;;;;;;5069528;28;20041;-84
2022/07/25 10:32:08;;;;;;;6.53;3.25;;;36.10;47.60;;;;;;5068694;28;20393;-84
2022/07/25 10:34:35;;;;;;;8.45;3.80;;;36.20;47.00;;;;;;5051535;28;20036;-82
2022/07/25 10:37:16;;;;;;;6.57;3.72;;;36.20;47.40;;;;;;5050153;28;20774;-84
2022/07/25 10:39:44;;;;;;;8.43;3.67;;;36.40;47.40;;;;;;5070314;28;20040;-84
2022/07/25 10:42:19;;;;;;;4.40;3.83;;;36.50;48.50;;;;;;5072826;28;20075;-85
2022/07/25 10:44:47;;;;;;;3.75;3.33;;;36.60;47.30;;;;;;5073009;28;20048;-83
2022/07/25 10:47:15;;;;;;;4.20;3.80;;;36.50;47.30;;;;;;5072084;28;20037;-83
2022/07/25 10:49:44;;;;;;;3.70;3.40;;;36.50;49.30;;;;;;5054845;28;20055;-84
2022/07/25 10:52:16;;;;;;;4.72;3.80;;;36.60;49.00;;;;;;5072431;28;20489;-84
2022/07/25 10:54:52;;;;;;;4.97;3.35;;;36.60;46.90;;;;;;5076201;28;20421;-84
2022/07/25 10:57:17;;;;;;;7.90;4.25;;;36.50;47.80;;;;;;5073221;28;20041;-83
2022/07/25 10:59:43;;;;;;;4.60;3.70;;;36.50;47.40;;;;;;5072751;28;20364;-82
2022/07/25 11:02:16;;;;;;;4.32;3.65;;;36.50;48.20;;;;;;5054120;28;20127;-83
2022/07/25 11:04:44;;;;;;;4.50;3.65;;;36.60;46.50;;;;;;5072468;28;20035;-84
2022/07/25 11:07:14;;;;;;;3.70;3.25;;;36.70;48.50;;;;;;5071910;28;20111;-84
2022/07/25 11:09:41;;;;;;;8.73;3.25;;;36.80;45.90;;;;;;5087525;28;20035;-83
2022/07/25 11:12:07;;;;;;;4.90;3.42;;;36.90;45.20;;;;;;5071873;28;20433;-84
2022/07/25 11:14:35;;;;;;;3.63;3.05;;;37.00;46.20;;;;;;5072482;28;20032;-83
2022/07/25 11:17:14;;;;;;;6.50;3.28;;;37.10;47.60;;;;;;5071515;28;20484;-84
2022/07/25 11:19:51;;;;;;;12.90;3.97;;;37.20;45.80;;;;;;5072385;28;20024;-85
2022/07/25 11:22:16;;;;;;;4.85;3.42;;;37.30;45.40;;;;;;5071932;28;20060;-84
2022/07/25 11:24:44;;;;;;;3.95;3.10;;;37.40;44.90;;;;;;5072073;28;20055;-84
2022/07/25 11:27:13;;;;;;;4.03;3.63;;;37.50;45.40;;;;;;5071211;28;20051;-84
2022/07/25 11:29:39;;;;;;;3.25;2.97;;;37.50;44.50;;;;;;5072098;28;20029;-82
2022/07/25 11:32:07;;;;;;;4.85;3.33;;;37.50;43.60;;;;;;5071139;28;20483;-82
2022/07/25 11:34:36;;;;;;;5.88;3.28;;;37.60;44.60;;;;;;5053912;28;20458;-84
2022/07/25 11:37:05;;;;;;;5.70;3.53;;;37.70;44.40;;;;;;5070963;28;20036;-81
2022/07/25 11:39:33;;;;;;;4.30;3.67;;;37.70;45.00;;;;;;5053248;28;20082;-83
2022/07/25 11:42:07;;;;;;;5.97;3.38;;;37.80;45.70;;;;;;5053114;28;20540;-84
2022/07/25 11:44:37;;;;;;;4.22;3.83;;;37.90;46.40;;;;;;5053740;28;20048;-82
2022/07/25 11:47:05;;;;;;;5.88;3.60;;;37.90;44.40;;;;;;5071107;28;20032;-81
2022/07/25 11:49:42;;;;;;;6.13;3.75;;;37.80;46.10;;;;;;5071835;28;20028;-83
2022/07/25 11:52:21;;;;;;;4.25;3.50;;;37.90;44.20;;;;;;5070256;28;20032;-82
2022/07/25 11:54:55;;;;;;;5.82;4.00;;;37.90;45.50;;;;;;5066951;28;20037;-81
2022/07/25 11:57:23;;;;;;;7.10;3.55;;;37.90;43.70;;;;;;5050931;28;20025;-83
2022/07/25 11:59:48;;;;;;;6.80;3.70;;;37.90;45.40;;;;;;5066709;28;20056;-81
2022/07/25 12:02:26;;;;;;;4.93;3.70;;;38.00;45.00;;;;;;5050784;28;20067;-84
2022/07/25 12:05:00;;;;;;;8.02;3.67;;;38.10;45.10;;;;;;5066593;28;20025;-84
2022/07/25 12:07:39;;;;;;;4.88;3.30;;;38.20;45.70;;;;;;5054201;28;20037;-84
2022/07/25 12:10:07;;;;;;;4.00;3.47;;;38.20;43.80;;;;;;5053215;28;20120;-81
2022/07/25 12:12:54;;;;;;;4.85;3.67;;;38.20;43.60;;;;;;5052852;28;20036;-80
2022/07/25 12:15:25;;;;;;;8.25;3.42;;;38.10;44.00;;;;;;5085662;28;20024;-80
2022/07/25 12:17:52;;;;;;;4.20;3.72;;;38.10;45.40;;;;;;5070676;28;20025;-83
2022/07/25 12:20:24;;;;;;;4.45;3.55;;;38.10;44.90;;;;;;5070942;28;20045;-81
2022/07/25 12:22:54;;;;;;;3.80;3.35;;;38.10;43.30;;;;;;5051928;28;20036;-82
2022/07/25 12:25:20;;;;;;;4.32;3.17;;;38.20;44.00;;;;;;5052588;28;20074;-81
2022/07/25 12:27:47;;;;;;;4.82;3.78;;;38.30;43.00;;;;;;5052389;28;20036;-84
2022/07/25 12:30:13;;;;;;;4.30;3.88;;;38.50;43.10;;;;;;5070941;28;20024;-82
2022/07/25 12:32:39;;;;;;;4.38;3.97;;;38.60;43.40;;;;;;5070692;28;20483;-82
2022/07/25 12:35:07;;;;;;;4.80;3.95;;;38.60;43.20;;;;;;5070522;28;20103;-83
2022/07/25 12:37:33;;;;;;;5.00;4.20;;;38.70;44.30;;;;;;5069993;28;20040;-82
2022/07/25 12:39:58;;;;;;;4.75;4.15;;;38.70;43.20;;;;;;5070415;28;20036;-82
2022/07/25 12:42:24;;;;;;;5.75;3.80;;;38.70;42.90;;;;;;5052195;28;20032;-81
2022/07/25 12:44:50;;;;;;;5.30;4.38;;;38.70;43.90;;;;;;5052385;28;20030;-83
2022/07/25 12:47:16;;;;;;;4.03;3.63;;;38.80;43.80;;;;;;5070005;28;20084;-80
2022/07/25 12:49:41;;;;;;;4.30;3.90;;;38.90;43.40;;;;;;5070768;28;20039;-82